createdAt,value
2018-11-21T00:02:49.051Z,22.43
2018-11-21T00:07:52.403Z,24.70
2018-11-21T00:12:56.998Z,26.05
2018-11-21T00:18:00.382Z,30.02
2018-11-21T00:23:03.789Z,26.00
2018-11-21T00:28:15.310Z,26.52
2018-11-21T00:33:18.712Z,25.23
2018-11-21T00:38:22.109Z,24.57
2018-11-21T00:43:25.522Z,21.02
2018-11-21T00:48:28.979Z,24.50
2018-11-21T00:53:32.375Z,23.87
2018-11-21T00:58:38.300Z,25.60
2018-11-21T01:03:41.848Z,24.23
2018-11-21T01:08:45.228Z,21.62
2018-11-21T01:13:48.607Z,25.40
2018-11-21T01:18:52.061Z,23.65
2018-11-21T01:23:55.443Z,22.85
2018-11-21T01:28:58.807Z,22.40
2018-11-21T01:34:02.541Z,26.35
2018-11-21T01:39:09.020Z,27.27
2018-11-21T01:44:12.438Z,26.75
2018-11-21T01:49:18.563Z,22.73
2018-11-21T01:54:22.308Z,25.30
2018-11-21T01:59:25.737Z,23.75
2018-11-21T02:04:29.115Z,24.50
2018-11-21T02:09:32.566Z,23.30
2018-11-21T02:14:36.209Z,25.83
2018-11-21T02:19:39.689Z,27.30
2018-11-21T02:24:43.076Z,26.53
2018-11-21T02:29:46.559Z,26.80
2018-11-21T02:34:49.887Z,33.37
2018-11-21T02:39:53.209Z,27.62
2018-11-21T02:44:56.594Z,26.48
2018-11-21T02:50:00.051Z,27.60
2018-11-21T02:55:03.533Z,26.27
2018-11-21T03:00:21.112Z,33.90
2018-11-21T03:05:24.597Z,29.63
2018-11-21T03:10:28.268Z,30.55
2018-11-21T03:15:31.664Z,30.40
2018-11-21T03:20:35.073Z,30.57
2018-11-21T03:25:38.490Z,29.63
2018-11-21T03:30:41.936Z,28.67
2018-11-21T03:35:45.333Z,28.10
2018-11-21T03:40:48.761Z,27.27
2018-11-21T03:45:52.196Z,28.70
2018-11-21T03:50:55.647Z,30.12
2018-11-21T03:55:59.181Z,28.57
2018-11-21T04:01:02.609Z,31.65
2018-11-21T04:06:06.158Z,32.63
2018-11-21T04:11:09.669Z,34.18
2018-11-21T04:16:13.172Z,31.02
2018-11-21T04:21:16.591Z,30.10
2018-11-21T04:26:20.037Z,31.75
2018-11-21T04:31:23.448Z,31.02
2018-11-21T04:36:26.888Z,32.73
2018-11-21T04:41:30.293Z,31.00
2018-11-21T04:46:33.759Z,33.07
2018-11-21T04:51:37.231Z,32.33
2018-11-21T04:56:40.696Z,32.17
2018-11-21T05:01:58.042Z,31.80
2018-11-21T05:07:01.487Z,32.97
2018-11-21T05:12:04.988Z,33.40
2018-11-21T05:17:08.455Z,33.80
2018-11-21T05:22:11.872Z,29.18
2018-11-21T05:27:15.303Z,34.27
2018-11-21T05:32:38.788Z,30.43
2018-11-21T06:05:09.686Z,32.78
2018-11-21T06:49:13.183Z,27.52
2018-11-21T06:54:39.127Z,27.98
2018-11-21T07:00:05.790Z,25.55
2018-11-21T07:05:44.775Z,30.32
2018-11-21T07:11:08.280Z,29.05
2018-11-21T07:27:48.740Z,27.58
2018-11-21T07:33:14.196Z,26.35
2018-11-21T07:38:39.016Z,26.20
2018-11-21T07:44:11.659Z,25.67
2018-11-21T07:49:38.652Z,23.75
2018-11-21T07:55:02.193Z,22.60
2018-11-21T08:11:38.535Z,24.50
2018-11-21T08:34:15.740Z,20.27
2018-11-21T08:45:22.340Z,17.23
2018-11-21T08:50:45.108Z,18.00
2018-11-21T08:56:45.756Z,18.75
2018-11-21T09:07:28.015Z,17.10
2018-11-21T09:18:28.147Z,17.40
2018-11-21T09:23:51.414Z,16.52
2018-11-21T09:34:45.953Z,16.02
2018-11-21T09:40:11.024Z,14.10
2018-11-21T09:45:33.829Z,14.30
2018-11-21T09:50:58.276Z,13.53
2018-11-21T09:56:20.978Z,14.40
2018-11-21T10:02:05.639Z,12.33
2018-11-21T10:13:22.837Z,13.22
2018-11-21T10:24:24.096Z,13.00
2018-11-21T10:29:27.419Z,11.40
2018-11-21T10:40:21.752Z,11.90
2018-11-21T10:45:53.602Z,12.03
2018-11-21T10:56:57.408Z,10.72
2018-11-21T11:13:43.863Z,10.85
2018-11-21T11:19:25.557Z,10.70
2018-11-21T11:25:07.390Z,10.07
2018-11-21T11:30:49.604Z,9.73
2018-11-21T11:47:48.955Z,10.80
2018-11-21T12:05:05.516Z,10.40
2018-11-21T12:10:31.656Z,10.03
2018-11-21T12:16:34.233Z,10.23
2018-11-21T12:22:16.989Z,10.58
2018-11-21T12:27:58.807Z,10.47
2018-11-21T12:33:45.045Z,10.10
2018-11-21T12:56:58.910Z,11.83
2018-11-21T13:02:42.414Z,12.83
2018-11-21T13:14:34.639Z,11.97
2018-11-21T13:20:16.518Z,10.53
2018-11-21T13:37:08.780Z,10.30
2018-11-21T13:48:59.847Z,11.18
2018-11-21T14:00:23.467Z,11.38
2018-11-21T14:21:56.267Z,11.33
2018-11-21T14:27:33.120Z,11.20
2018-11-21T14:33:07.826Z,10.50
2018-11-21T14:44:08.402Z,11.38
2018-11-21T15:06:04.215Z,9.73
2018-11-21T15:11:11.143Z,9.95
2018-11-21T15:16:34.187Z,9.20
2018-11-21T15:22:05.803Z,9.58
2018-11-21T15:38:59.288Z,9.30
2018-11-21T15:55:45.099Z,9.33
2018-11-21T16:00:47.658Z,8.20
2018-11-21T16:06:12.207Z,8.20
2018-11-21T16:11:58.487Z,9.20
2018-11-21T16:28:52.826Z,9.45
2018-11-21T16:51:07.423Z,10.23
2018-11-21T17:02:22.018Z,9.63
2018-11-21T17:07:53.142Z,11.70
2018-11-21T17:13:16.105Z,19.07
2018-11-21T17:18:39.119Z,14.95
2018-11-21T17:24:06.727Z,13.22
2018-11-21T17:29:53.891Z,8.67
2018-11-21T17:40:49.648Z,9.33
2018-11-21T18:09:17.659Z,13.27
2018-11-21T18:20:19.147Z,10.10
2018-11-21T18:25:44.614Z,10.68
2018-11-21T19:09:37.617Z,10.45
2018-11-21T19:20:29.503Z,12.30
2018-11-21T19:25:52.349Z,11.88
2018-11-21T19:36:43.957Z,10.63
2018-11-21T19:41:47.386Z,8.88
2018-11-21T19:47:12.918Z,9.00
2018-11-21T19:57:53.444Z,9.20
2018-11-21T20:25:39.133Z,11.38
2018-11-21T20:36:30.797Z,13.57
2018-11-21T20:58:40.619Z,15.95
2018-11-21T21:04:05.645Z,16.12
2018-11-21T21:09:11.280Z,14.78
2018-11-21T21:14:14.654Z,14.43
2018-11-21T22:29:38.411Z,17.47
2018-11-21T22:35:02.240Z,18.27
2018-11-21T22:40:25.518Z,17.15
2018-11-21T22:45:48.604Z,15.90
2018-11-21T22:51:11.330Z,15.80
2018-11-21T22:56:16.356Z,17.32
2018-11-21T23:01:39.144Z,14.93
2018-11-21T23:18:01.331Z,15.50
2018-11-21T23:23:24.613Z,16.40
2018-11-21T23:28:47.655Z,17.25
2018-11-21T23:45:19.513Z,15.77
2018-11-21T23:56:22.807Z,18.62
